sensor_id;sensor_type;location;lat;lon;timestamp;P1;durP1;ratioP1;P2;durP2;ratioP2
43152;SDS011;28756;49.064;9.290;2024-02-23T00:00:34;1.15;;;0.40;;
43152;SDS011;28756;49.064;9.290;2024-02-23T00:03:00;1.95;;;0.38;;
43152;SDS011;28756;49.064;9.290;2024-02-23T00:05:26;0.75;;;0.35;;
43152;SDS011;28756;49.064;9.290;2024-02-23T00:07:51;1.33;;;0.30;;
43152;SDS011;28756;49.064;9.290;2024-02-23T00:10:17;0.47;;;0.40;;
43152;SDS011;28756;49.064;9.290;2024-02-23T00:12:43;1.58;;;0.52;;
43152;SDS011;28756;49.064;9.290;2024-02-23T00:15:09;1.20;;;0.40;;
43152;SDS011;28756;49.064;9.290;2024-02-23T00:17:35;2.38;;;0.30;;
43152;SDS011;28756;49.064;9.290;2024-02-23T00:20:01;2.08;;;0.40;;
43152;SDS011;28756;49.064;9.290;2024-02-23T00:22:27;1.75;;;0.30;;
43152;SDS011;28756;49.064;9.290;2024-02-23T00:24:53;1.02;;;0.40;;
43152;SDS011;28756;49.064;9.290;2024-02-23T00:27:18;2.85;;;0.40;;
43152;SDS011;28756;49.064;9.290;2024-02-23T00:29:44;2.50;;;0.30;;
43152;SDS011;28756;49.064;9.290;2024-02-23T00:32:13;1.40;;;0.40;;
43152;SDS011;28756;49.064;9.290;2024-02-23T00:34:39;0.80;;;0.40;;
43152;SDS011;28756;49.064;9.290;2024-02-23T00:37:05;0.95;;;0.30;;
43152;SDS011;28756;49.064;9.290;2024-02-23T00:39:32;1.92;;;0.43;;
43152;SDS011;28756;49.064;9.290;2024-02-23T00:41:58;3.50;;;0.45;;
43152;SDS011;28756;49.064;9.290;2024-02-23T00:44:24;0.82;;;0.40;;
43152;SDS011;28756;49.064;9.290;2024-02-23T00:46:50;2.90;;;0.60;;
43152;SDS011;28756;49.064;9.290;2024-02-23T00:49:16;2.03;;;0.65;;
43152;SDS011;28756;49.064;9.290;2024-02-23T00:51:42;2.80;;;0.52;;
43152;SDS011;28756;49.064;9.290;2024-02-23T00:54:08;1.08;;;0.40;;
43152;SDS011;28756;49.064;9.290;2024-02-23T00:56:34;2.55;;;0.43;;
43152;SDS011;28756;49.064;9.290;2024-02-23T00:59:00;3.78;;;0.60;;
43152;SDS011;28756;49.064;9.290;2024-02-23T01:01:26;2.78;;;0.50;;
43152;SDS011;28756;49.064;9.290;2024-02-23T01:03:53;3.30;;;0.70;;
43152;SDS011;28756;49.064;9.290;2024-02-23T01:06:19;2.45;;;0.70;;
43152;SDS011;28756;49.064;9.290;2024-02-23T01:08:45;2.40;;;0.65;;
43152;SDS011;28756;49.064;9.290;2024-02-23T01:11:11;5.95;;;0.75;;
43152;SDS011;28756;49.064;9.290;2024-02-23T01:13:37;3.30;;;0.60;;
43152;SDS011;28756;49.064;9.290;2024-02-23T01:16:02;3.05;;;0.60;;
43152;SDS011;28756;49.064;9.290;2024-02-23T01:18:28;4.20;;;0.70;;
43152;SDS011;28756;49.064;9.290;2024-02-23T01:20:56;3.08;;;0.60;;
43152;SDS011;28756;49.064;9.290;2024-02-23T01:23:22;3.85;;;0.68;;
43152;SDS011;28756;49.064;9.290;2024-02-23T01:25:48;2.63;;;0.55;;
43152;SDS011;28756;49.064;9.290;2024-02-23T01:28:14;2.40;;;0.63;;
43152;SDS011;28756;49.064;9.290;2024-02-23T01:30:39;2.05;;;0.60;;
43152;SDS011;28756;49.064;9.290;2024-02-23T01:33:05;4.50;;;0.60;;
43152;SDS011;28756;49.064;9.290;2024-02-23T01:35:31;3.35;;;0.68;;
43152;SDS011;28756;49.064;9.290;2024-02-23T01:37:57;1.88;;;0.50;;
43152;SDS011;28756;49.064;9.290;2024-02-23T01:40:22;4.90;;;0.90;;
43152;SDS011;28756;49.064;9.290;2024-02-23T01:42:48;2.00;;;0.60;;
43152;SDS011;28756;49.064;9.290;2024-02-23T01:45:24;2.80;;;0.70;;
43152;SDS011;28756;49.064;9.290;2024-02-23T01:47:51;1.15;;;0.30;;
43152;SDS011;28756;49.064;9.290;2024-02-23T01:50:20;2.15;;;0.50;;
43152;SDS011;28756;49.064;9.290;2024-02-23T01:52:46;4.05;;;0.52;;
43152;SDS011;28756;49.064;9.290;2024-02-23T01:55:11;1.05;;;0.50;;
43152;SDS011;28756;49.064;9.290;2024-02-23T01:57:37;5.82;;;1.15;;
43152;SDS011;28756;49.064;9.290;2024-02-23T02:00:04;2.97;;;0.63;;
43152;SDS011;28756;49.064;9.290;2024-02-23T02:02:32;2.50;;;0.65;;
43152;SDS011;28756;49.064;9.290;2024-02-23T02:05:00;1.52;;;0.70;;
43152;SDS011;28756;49.064;9.290;2024-02-23T02:07:25;2.63;;;0.80;;
43152;SDS011;28756;49.064;9.290;2024-02-23T02:09:51;3.63;;;0.85;;
43152;SDS011;28756;49.064;9.290;2024-02-23T02:12:27;4.00;;;0.57;;
43152;SDS011;28756;49.064;9.290;2024-02-23T02:14:53;1.67;;;0.57;;
43152;SDS011;28756;49.064;9.290;2024-02-23T02:17:20;3.47;;;0.60;;
43152;SDS011;28756;49.064;9.290;2024-02-23T02:19:49;5.10;;;0.98;;
43152;SDS011;28756;49.064;9.290;2024-02-23T02:22:15;4.63;;;0.75;;
43152;SDS011;28756;49.064;9.290;2024-02-23T02:24:41;2.38;;;0.60;;
43152;SDS011;28756;49.064;9.290;2024-02-23T02:27:09;1.90;;;0.52;;
43152;SDS011;28756;49.064;9.290;2024-02-23T02:29:35;2.65;;;0.60;;
43152;SDS011;28756;49.064;9.290;2024-02-23T02:32:01;2.45;;;0.60;;
43152;SDS011;28756;49.064;9.290;2024-02-23T02:34:27;3.38;;;0.57;;
43152;SDS011;28756;49.064;9.290;2024-02-23T02:36:54;1.58;;;0.52;;
43152;SDS011;28756;49.064;9.290;2024-02-23T02:39:20;1.15;;;0.52;;
43152;SDS011;28756;49.064;9.290;2024-02-23T02:41:47;2.05;;;0.63;;
43152;SDS011;28756;49.064;9.290;2024-02-23T02:44:14;1.95;;;0.52;;
43152;SDS011;28756;49.064;9.290;2024-02-23T02:46:40;2.90;;;0.63;;
43152;SDS011;28756;49.064;9.290;2024-02-23T02:49:07;2.42;;;0.52;;
43152;SDS011;28756;49.064;9.290;2024-02-23T02:51:33;1.45;;;0.50;;
43152;SDS011;28756;49.064;9.290;2024-02-23T02:53:59;3.03;;;0.60;;
43152;SDS011;28756;49.064;9.290;2024-02-23T02:56:24;2.75;;;0.60;;
43152;SDS011;28756;49.064;9.290;2024-02-23T02:58:50;1.75;;;0.50;;
43152;SDS011;28756;49.064;9.290;2024-02-23T03:01:16;1.90;;;0.47;;
43152;SDS011;28756;49.064;9.290;2024-02-23T03:03:42;1.50;;;0.40;;
43152;SDS011;28756;49.064;9.290;2024-02-23T03:06:07;1.77;;;0.57;;
43152;SDS011;28756;49.064;9.290;2024-02-23T03:08:34;1.63;;;0.50;;
43152;SDS011;28756;49.064;9.290;2024-02-23T03:11:00;1.33;;;0.40;;
43152;SDS011;28756;49.064;9.290;2024-02-23T03:13:26;3.80;;;0.50;;
43152;SDS011;28756;49.064;9.290;2024-02-23T03:15:52;1.27;;;0.45;;
43152;SDS011;28756;49.064;9.290;2024-02-23T03:18:18;2.05;;;0.40;;
43152;SDS011;28756;49.064;9.290;2024-02-23T03:20:46;2.08;;;0.50;;
43152;SDS011;28756;49.064;9.290;2024-02-23T03:23:12;1.05;;;0.40;;
43152;SDS011;28756;49.064;9.290;2024-02-23T03:25:37;2.35;;;0.50;;
43152;SDS011;28756;49.064;9.290;2024-02-23T03:28:03;0.98;;;0.40;;
43152;SDS011;28756;49.064;9.290;2024-02-23T03:30:29;3.30;;;0.40;;
43152;SDS011;28756;49.064;9.290;2024-02-23T03:32:55;1.63;;;0.40;;
43152;SDS011;28756;49.064;9.290;2024-02-23T03:35:20;3.20;;;0.50;;
43152;SDS011;28756;49.064;9.290;2024-02-23T03:37:46;1.42;;;0.52;;
43152;SDS011;28756;49.064;9.290;2024-02-23T03:40:12;1.88;;;0.45;;
43152;SDS011;28756;49.064;9.290;2024-02-23T03:42:38;2.25;;;0.57;;
43152;SDS011;28756;49.064;9.290;2024-02-23T03:45:04;1.98;;;0.43;;
43152;SDS011;28756;49.064;9.290;2024-02-23T03:47:30;1.60;;;0.50;;
43152;SDS011;28756;49.064;9.290;2024-02-23T03:49:56;1.42;;;0.60;;
43152;SDS011;28756;49.064;9.290;2024-02-23T03:52:22;1.63;;;0.38;;
43152;SDS011;28756;49.064;9.290;2024-02-23T03:54:48;1.83;;;0.40;;
43152;SDS011;28756;49.064;9.290;2024-02-23T03:57:14;1.50;;;0.47;;
43152;SDS011;28756;49.064;9.290;2024-02-23T03:59:41;1.75;;;0.47;;
43152;SDS011;28756;49.064;9.290;2024-02-23T04:02:19;2.05;;;0.50;;
43152;SDS011;28756;49.064;9.290;2024-02-23T04:04:45;1.13;;;0.43;;
43152;SDS011;28756;49.064;9.290;2024-02-23T04:07:12;1.73;;;0.50;;
43152;SDS011;28756;49.064;9.290;2024-02-23T04:09:38;1.35;;;0.38;;
43152;SDS011;28756;49.064;9.290;2024-02-23T04:12:04;3.47;;;0.68;;
43152;SDS011;28756;49.064;9.290;2024-02-23T04:14:32;1.67;;;0.50;;
43152;SDS011;28756;49.064;9.290;2024-02-23T04:17:01;2.20;;;0.40;;
43152;SDS011;28756;49.064;9.290;2024-02-23T04:19:30;1.98;;;0.57;;
43152;SDS011;28756;49.064;9.290;2024-02-23T04:21:55;1.95;;;0.40;;
43152;SDS011;28756;49.064;9.290;2024-02-23T04:24:21;2.65;;;0.60;;
43152;SDS011;28756;49.064;9.290;2024-02-23T04:26:47;2.28;;;0.40;;
43152;SDS011;28756;49.064;9.290;2024-02-23T04:29:13;3.00;;;0.50;;
43152;SDS011;28756;49.064;9.290;2024-02-23T04:31:38;2.60;;;0.52;;
43152;SDS011;28756;49.064;9.290;2024-02-23T04:34:04;2.25;;;0.40;;
43152;SDS011;28756;49.064;9.290;2024-02-23T04:36:30;1.35;;;0.50;;
43152;SDS011;28756;49.064;9.290;2024-02-23T04:38:56;1.63;;;0.60;;
43152;SDS011;28756;49.064;9.290;2024-02-23T04:41:22;2.17;;;0.40;;
43152;SDS011;28756;49.064;9.290;2024-02-23T04:43:47;2.53;;;0.70;;
43152;SDS011;28756;49.064;9.290;2024-02-23T04:46:14;2.25;;;0.70;;
43152;SDS011;28756;49.064;9.290;2024-02-23T04:48:40;1.85;;;0.50;;
43152;SDS011;28756;49.064;9.290;2024-02-23T04:51:06;1.48;;;0.65;;
43152;SDS011;28756;49.064;9.290;2024-02-23T04:53:37;1.55;;;0.50;;
43152;SDS011;28756;49.064;9.290;2024-02-23T04:56:04;3.20;;;0.60;;
43152;SDS011;28756;49.064;9.290;2024-02-23T04:58:30;2.53;;;0.52;;
43152;SDS011;28756;49.064;9.290;2024-02-23T05:00:56;0.68;;;0.40;;
43152;SDS011;28756;49.064;9.290;2024-02-23T05:03:22;1.15;;;0.47;;
43152;SDS011;28756;49.064;9.290;2024-02-23T05:05:48;3.70;;;0.60;;
43152;SDS011;28756;49.064;9.290;2024-02-23T05:08:18;2.15;;;0.50;;
43152;SDS011;28756;49.064;9.290;2024-02-23T05:10:49;3.20;;;0.52;;
43152;SDS011;28756;49.064;9.290;2024-02-23T05:13:18;2.53;;;0.50;;
43152;SDS011;28756;49.064;9.290;2024-02-23T05:15:44;2.33;;;0.60;;
43152;SDS011;28756;49.064;9.290;2024-02-23T05:18:10;1.48;;;0.57;;
43152;SDS011;28756;49.064;9.290;2024-02-23T05:20:35;3.38;;;0.65;;
43152;SDS011;28756;49.064;9.290;2024-02-23T05:23:01;1.42;;;0.50;;
43152;SDS011;28756;49.064;9.290;2024-02-23T05:25:27;1.40;;;0.52;;
43152;SDS011;28756;49.064;9.290;2024-02-23T05:27:53;1.17;;;0.40;;
43152;SDS011;28756;49.064;9.290;2024-02-23T05:30:19;2.28;;;0.60;;
43152;SDS011;28756;49.064;9.290;2024-02-23T05:32:44;1.30;;;0.55;;
43152;SDS011;28756;49.064;9.290;2024-02-23T05:35:11;1.60;;;0.50;;
43152;SDS011;28756;49.064;9.290;2024-02-23T05:37:40;2.22;;;0.50;;
43152;SDS011;28756;49.064;9.290;2024-02-23T05:40:07;1.85;;;0.57;;
43152;SDS011;28756;49.064;9.290;2024-02-23T05:42:38;2.67;;;0.45;;
43152;SDS011;28756;49.064;9.290;2024-02-23T05:45:04;2.28;;;0.55;;
43152;SDS011;28756;49.064;9.290;2024-02-23T05:47:37;6.72;;;0.60;;
43152;SDS011;28756;49.064;9.290;2024-02-23T05:50:07;2.78;;;0.65;;
43152;SDS011;28756;49.064;9.290;2024-02-23T05:52:36;4.82;;;0.70;;
43152;SDS011;28756;49.064;9.290;2024-02-23T05:55:02;2.92;;;0.80;;
43152;SDS011;28756;49.064;9.290;2024-02-23T05:57:29;1.17;;;0.50;;
43152;SDS011;28756;49.064;9.290;2024-02-23T05:59:58;2.25;;;0.52;;
43152;SDS011;28756;49.064;9.290;2024-02-23T06:02:24;1.08;;;0.50;;
43152;SDS011;28756;49.064;9.290;2024-02-23T06:04:50;2.45;;;0.60;;
43152;SDS011;28756;49.064;9.290;2024-02-23T06:07:16;2.00;;;0.60;;
43152;SDS011;28756;49.064;9.290;2024-02-23T06:09:42;1.15;;;0.50;;
43152;SDS011;28756;49.064;9.290;2024-02-23T06:12:08;1.38;;;0.40;;
43152;SDS011;28756;49.064;9.290;2024-02-23T06:14:35;0.93;;;0.40;;
43152;SDS011;28756;49.064;9.290;2024-02-23T06:17:01;2.00;;;0.50;;
43152;SDS011;28756;49.064;9.290;2024-02-23T06:19:27;0.95;;;0.50;;
43152;SDS011;28756;49.064;9.290;2024-02-23T06:21:53;2.97;;;0.70;;
43152;SDS011;28756;49.064;9.290;2024-02-23T06:24:22;1.90;;;0.50;;
43152;SDS011;28756;49.064;9.290;2024-02-23T06:26:48;3.15;;;0.60;;
43152;SDS011;28756;49.064;9.290;2024-02-23T06:29:14;1.85;;;0.60;;
43152;SDS011;28756;49.064;9.290;2024-02-23T06:31:40;1.15;;;0.40;;
43152;SDS011;28756;49.064;9.290;2024-02-23T06:34:06;2.78;;;0.70;;
43152;SDS011;28756;49.064;9.290;2024-02-23T06:36:33;1.58;;;0.50;;
43152;SDS011;28756;49.064;9.290;2024-02-23T06:38:59;1.55;;;0.60;;
43152;SDS011;28756;49.064;9.290;2024-02-23T06:41:25;2.13;;;0.40;;
43152;SDS011;28756;49.064;9.290;2024-02-23T06:43:51;2.38;;;0.70;;
43152;SDS011;28756;49.064;9.290;2024-02-23T06:46:18;2.03;;;0.60;;
43152;SDS011;28756;49.064;9.290;2024-02-23T06:48:47;2.60;;;0.47;;
43152;SDS011;28756;49.064;9.290;2024-02-23T06:51:13;1.48;;;0.60;;
43152;SDS011;28756;49.064;9.290;2024-02-23T06:53:40;0.88;;;0.45;;
43152;SDS011;28756;49.064;9.290;2024-02-23T06:56:06;2.53;;;0.85;;
43152;SDS011;28756;49.064;9.290;2024-02-23T06:58:32;3.17;;;0.82;;
43152;SDS011;28756;49.064;9.290;2024-02-23T07:00:58;1.65;;;0.52;;
43152;SDS011;28756;49.064;9.290;2024-02-23T07:03:24;2.17;;;0.75;;
43152;SDS011;28756;49.064;9.290;2024-02-23T07:05:49;3.72;;;1.20;;
43152;SDS011;28756;49.064;9.290;2024-02-23T07:08:15;4.45;;;1.20;;
43152;SDS011;28756;49.064;9.290;2024-02-23T07:10:41;2.67;;;0.90;;
43152;SDS011;28756;49.064;9.290;2024-02-23T07:13:07;2.35;;;0.93;;
43152;SDS011;28756;49.064;9.290;2024-02-23T07:15:34;2.33;;;0.80;;
43152;SDS011;28756;49.064;9.290;2024-02-23T07:18:00;3.22;;;1.60;;
43152;SDS011;28756;49.064;9.290;2024-02-23T07:20:27;2.75;;;1.10;;
43152;SDS011;28756;49.064;9.290;2024-02-23T07:22:52;3.08;;;0.90;;
43152;SDS011;28756;49.064;9.290;2024-02-23T07:25:19;5.30;;;1.75;;
43152;SDS011;28756;49.064;9.290;2024-02-23T07:27:45;2.60;;;1.33;;
43152;SDS011;28756;49.064;9.290;2024-02-23T07:30:13;3.55;;;1.08;;
43152;SDS011;28756;49.064;9.290;2024-02-23T07:32:41;3.75;;;0.82;;
43152;SDS011;28756;49.064;9.290;2024-02-23T07:35:07;3.63;;;0.77;;
43152;SDS011;28756;49.064;9.290;2024-02-23T07:37:34;3.45;;;0.80;;
43152;SDS011;28756;49.064;9.290;2024-02-23T07:40:02;3.35;;;1.13;;
43152;SDS011;28756;49.064;9.290;2024-02-23T07:42:29;4.85;;;1.75;;
43152;SDS011;28756;49.064;9.290;2024-02-23T07:44:56;3.75;;;1.38;;
43152;SDS011;28756;49.064;9.290;2024-02-23T07:47:22;2.35;;;0.70;;
43152;SDS011;28756;49.064;9.290;2024-02-23T07:49:48;3.75;;;1.00;;
43152;SDS011;28756;49.064;9.290;2024-02-23T07:52:14;1.58;;;0.77;;
43152;SDS011;28756;49.064;9.290;2024-02-23T07:54:40;2.90;;;1.25;;
43152;SDS011;28756;49.064;9.290;2024-02-23T07:57:09;2.30;;;1.13;;
43152;SDS011;28756;49.064;9.290;2024-02-23T07:59:35;2.97;;;1.50;;
43152;SDS011;28756;49.064;9.290;2024-02-23T08:02:01;4.15;;;1.45;;
43152;SDS011;28756;49.064;9.290;2024-02-23T08:04:27;2.60;;;0.93;;
43152;SDS011;28756;49.064;9.290;2024-02-23T08:06:53;2.97;;;1.30;;
43152;SDS011;28756;49.064;9.290;2024-02-23T08:09:18;3.15;;;1.30;;
43152;SDS011;28756;49.064;9.290;2024-02-23T08:11:47;1.98;;;1.10;;
43152;SDS011;28756;49.064;9.290;2024-02-23T08:14:12;1.75;;;0.85;;
43152;SDS011;28756;49.064;9.290;2024-02-23T08:16:38;1.90;;;0.70;;
43152;SDS011;28756;49.064;9.290;2024-02-23T08:19:04;2.60;;;0.68;;
43152;SDS011;28756;49.064;9.290;2024-02-23T08:21:30;3.50;;;1.20;;
43152;SDS011;28756;49.064;9.290;2024-02-23T08:23:55;3.60;;;1.58;;
43152;SDS011;28756;49.064;9.290;2024-02-23T08:26:21;2.47;;;1.17;;
43152;SDS011;28756;49.064;9.290;2024-02-23T08:28:47;3.15;;;1.10;;
43152;SDS011;28756;49.064;9.290;2024-02-23T08:31:13;3.10;;;1.20;;
43152;SDS011;28756;49.064;9.290;2024-02-23T08:33:39;3.30;;;1.40;;
43152;SDS011;28756;49.064;9.290;2024-02-23T08:36:04;3.40;;;1.15;;
43152;SDS011;28756;49.064;9.290;2024-02-23T08:38:34;2.67;;;1.23;;
43152;SDS011;28756;49.064;9.290;2024-02-23T08:40:59;2.75;;;1.20;;
43152;SDS011;28756;49.064;9.290;2024-02-23T08:43:27;3.17;;;1.13;;
43152;SDS011;28756;49.064;9.290;2024-02-23T08:45:53;4.68;;;0.90;;
43152;SDS011;28756;49.064;9.290;2024-02-23T08:48:18;4.93;;;1.10;;
43152;SDS011;28756;49.064;9.290;2024-02-23T08:50:44;1.45;;;0.85;;
43152;SDS011;28756;49.064;9.290;2024-02-23T08:53:10;2.15;;;1.00;;
43152;SDS011;28756;49.064;9.290;2024-02-23T08:55:36;3.05;;;1.00;;
43152;SDS011;28756;49.064;9.290;2024-02-23T08:58:02;2.30;;;1.00;;
43152;SDS011;28756;49.064;9.290;2024-02-23T09:00:30;3.20;;;1.00;;
43152;SDS011;28756;49.064;9.290;2024-02-23T09:02:56;2.17;;;0.90;;
43152;SDS011;28756;49.064;9.290;2024-02-23T09:05:22;3.25;;;1.10;;
43152;SDS011;28756;49.064;9.290;2024-02-23T09:07:48;3.85;;;1.10;;
43152;SDS011;28756;49.064;9.290;2024-02-23T09:10:14;2.22;;;0.93;;
43152;SDS011;28756;49.064;9.290;2024-02-23T09:12:40;1.75;;;0.85;;
43152;SDS011;28756;49.064;9.290;2024-02-23T09:15:05;3.70;;;1.02;;
43152;SDS011;28756;49.064;9.290;2024-02-23T09:17:32;5.15;;;0.68;;
43152;SDS011;28756;49.064;9.290;2024-02-23T09:19:58;3.42;;;0.75;;
43152;SDS011;28756;49.064;9.290;2024-02-23T09:22:24;3.83;;;0.75;;
43152;SDS011;28756;49.064;9.290;2024-02-23T09:24:49;1.42;;;0.73;;
43152;SDS011;28756;49.064;9.290;2024-02-23T09:27:15;1.75;;;0.80;;
43152;SDS011;28756;49.064;9.290;2024-02-23T09:29:41;2.85;;;0.70;;
43152;SDS011;28756;49.064;9.290;2024-02-23T09:32:07;1.85;;;0.50;;
43152;SDS011;28756;49.064;9.290;2024-02-23T09:34:33;4.07;;;0.75;;
43152;SDS011;28756;49.064;9.290;2024-02-23T09:36:59;2.03;;;0.80;;
43152;SDS011;28756;49.064;9.290;2024-02-23T09:39:25;1.95;;;0.80;;
43152;SDS011;28756;49.064;9.290;2024-02-23T09:41:55;2.28;;;0.80;;
43152;SDS011;28756;49.064;9.290;2024-02-23T09:44:25;1.27;;;0.60;;
43152;SDS011;28756;49.064;9.290;2024-02-23T09:46:58;3.17;;;0.77;;
43152;SDS011;28756;49.064;9.290;2024-02-23T09:49:40;2.25;;;0.88;;
43152;SDS011;28756;49.064;9.290;2024-02-23T09:52:15;3.05;;;0.80;;
43152;SDS011;28756;49.064;9.290;2024-02-23T09:54:43;2.03;;;0.70;;
43152;SDS011;28756;49.064;9.290;2024-02-23T09:57:09;2.95;;;0.93;;
43152;SDS011;28756;49.064;9.290;2024-02-23T09:59:35;2.72;;;0.80;;
43152;SDS011;28756;49.064;9.290;2024-02-23T10:02:14;2.35;;;0.80;;
43152;SDS011;28756;49.064;9.290;2024-02-23T10:04:42;5.13;;;2.08;;
43152;SDS011;28756;49.064;9.290;2024-02-23T10:07:09;4.50;;;2.42;;
43152;SDS011;28756;49.064;9.290;2024-02-23T10:09:35;4.15;;;1.70;;
43152;SDS011;28756;49.064;9.290;2024-02-23T10:12:02;3.80;;;1.30;;
43152;SDS011;28756;49.064;9.290;2024-02-23T10:14:28;2.80;;;1.17;;
43152;SDS011;28756;49.064;9.290;2024-02-23T10:16:54;3.15;;;0.77;;
43152;SDS011;28756;49.064;9.290;2024-02-23T10:19:20;1.70;;;0.70;;
43152;SDS011;28756;49.064;9.290;2024-02-23T10:21:46;2.22;;;0.60;;
43152;SDS011;28756;49.064;9.290;2024-02-23T10:24:12;1.63;;;0.63;;
43152;SDS011;28756;49.064;9.290;2024-02-23T10:26:41;3.67;;;0.88;;
43152;SDS011;28756;49.064;9.290;2024-02-23T10:29:07;1.35;;;0.50;;
43152;SDS011;28756;49.064;9.290;2024-02-23T10:31:35;2.92;;;0.65;;
43152;SDS011;28756;49.064;9.290;2024-02-23T10:34:08;4.70;;;0.70;;
43152;SDS011;28756;49.064;9.290;2024-02-23T10:36:37;2.40;;;0.80;;
43152;SDS011;28756;49.064;9.290;2024-02-23T10:39:07;3.55;;;0.80;;
43152;SDS011;28756;49.064;9.290;2024-02-23T10:41:35;1.75;;;0.93;;
43152;SDS011;28756;49.064;9.290;2024-02-23T10:44:04;1.75;;;0.50;;
43152;SDS011;28756;49.064;9.290;2024-02-23T10:46:31;4.43;;;0.90;;
43152;SDS011;28756;49.064;9.290;2024-02-23T10:48:58;3.90;;;0.80;;
43152;SDS011;28756;49.064;9.290;2024-02-23T10:51:27;3.42;;;0.90;;
43152;SDS011;28756;49.064;9.290;2024-02-23T10:53:53;1.88;;;0.60;;
43152;SDS011;28756;49.064;9.290;2024-02-23T10:56:19;2.03;;;0.60;;
43152;SDS011;28756;49.064;9.290;2024-02-23T10:58:47;3.03;;;0.60;;
43152;SDS011;28756;49.064;9.290;2024-02-23T11:01:13;2.17;;;0.60;;
43152;SDS011;28756;49.064;9.290;2024-02-23T11:03:41;1.40;;;0.70;;
43152;SDS011;28756;49.064;9.290;2024-02-23T11:06:11;1.58;;;0.40;;
43152;SDS011;28756;49.064;9.290;2024-02-23T11:08:37;2.25;;;0.52;;
43152;SDS011;28756;49.064;9.290;2024-02-23T11:11:09;3.00;;;0.82;;
43152;SDS011;28756;49.064;9.290;2024-02-23T11:13:37;2.50;;;0.73;;
43152;SDS011;28756;49.064;9.290;2024-02-23T11:16:04;2.22;;;0.65;;
43152;SDS011;28756;49.064;9.290;2024-02-23T11:18:31;2.28;;;0.50;;
43152;SDS011;28756;49.064;9.290;2024-02-23T11:21:00;2.50;;;0.60;;
43152;SDS011;28756;49.064;9.290;2024-02-23T11:26:30;1.73;;;0.63;;
43152;SDS011;28756;49.064;9.290;2024-02-23T11:28:59;2.00;;;0.73;;
43152;SDS011;28756;49.064;9.290;2024-02-23T11:31:36;3.75;;;0.77;;
43152;SDS011;28756;49.064;9.290;2024-02-23T11:34:11;1.80;;;0.80;;
43152;SDS011;28756;49.064;9.290;2024-02-23T11:36:38;2.03;;;0.63;;
43152;SDS011;28756;49.064;9.290;2024-02-23T11:39:04;3.00;;;0.82;;
43152;SDS011;28756;49.064;9.290;2024-02-23T11:41:30;1.55;;;0.60;;
43152;SDS011;28756;49.064;9.290;2024-02-23T11:43:56;3.63;;;0.73;;
43152;SDS011;28756;49.064;9.290;2024-02-23T11:46:25;2.88;;;0.75;;
43152;SDS011;28756;49.064;9.290;2024-02-23T11:48:51;1.63;;;0.70;;
43152;SDS011;28756;49.064;9.290;2024-02-23T11:51:20;2.33;;;0.68;;
43152;SDS011;28756;49.064;9.290;2024-02-23T11:53:48;1.17;;;0.60;;
43152;SDS011;28756;49.064;9.290;2024-02-23T11:56:14;1.60;;;0.50;;
43152;SDS011;28756;49.064;9.290;2024-02-23T11:58:41;3.17;;;0.80;;
43152;SDS011;28756;49.064;9.290;2024-02-23T12:01:07;2.80;;;1.00;;
43152;SDS011;28756;49.064;9.290;2024-02-23T12:03:33;4.60;;;0.90;;
43152;SDS011;28756;49.064;9.290;2024-02-23T12:06:00;2.30;;;0.80;;
43152;SDS011;28756;49.064;9.290;2024-02-23T12:08:27;2.20;;;0.60;;
43152;SDS011;28756;49.064;9.290;2024-02-23T12:10:55;1.20;;;0.70;;
43152;SDS011;28756;49.064;9.290;2024-02-23T12:13:22;1.77;;;0.73;;
43152;SDS011;28756;49.064;9.290;2024-02-23T12:15:48;3.38;;;0.70;;
43152;SDS011;28756;49.064;9.290;2024-02-23T12:18:17;3.28;;;0.80;;
43152;SDS011;28756;49.064;9.290;2024-02-23T12:20:48;3.20;;;0.80;;
43152;SDS011;28756;49.064;9.290;2024-02-23T12:23:15;2.92;;;0.68;;
43152;SDS011;28756;49.064;9.290;2024-02-23T12:25:41;3.03;;;0.63;;
43152;SDS011;28756;49.064;9.290;2024-02-23T12:28:26;2.80;;;0.68;;
43152;SDS011;28756;49.064;9.290;2024-02-23T12:30:59;2.75;;;0.70;;
43152;SDS011;28756;49.064;9.290;2024-02-23T12:33:30;2.47;;;0.60;;
43152;SDS011;28756;49.064;9.290;2024-02-23T12:35:58;4.40;;;0.73;;
43152;SDS011;28756;49.064;9.290;2024-02-23T12:38:27;0.98;;;0.50;;
43152;SDS011;28756;49.064;9.290;2024-02-23T12:40:53;3.10;;;0.82;;
43152;SDS011;28756;49.064;9.290;2024-02-23T12:43:20;2.25;;;0.80;;
43152;SDS011;28756;49.064;9.290;2024-02-23T12:45:49;3.20;;;0.75;;
43152;SDS011;28756;49.064;9.290;2024-02-23T12:48:18;1.05;;;0.47;;
43152;SDS011;28756;49.064;9.290;2024-02-23T12:50:45;2.22;;;0.70;;
43152;SDS011;28756;49.064;9.290;2024-02-23T12:56:05;1.70;;;0.50;;
43152;SDS011;28756;49.064;9.290;2024-02-23T12:58:36;2.83;;;0.65;;
43152;SDS011;28756;49.064;9.290;2024-02-23T13:01:04;3.47;;;1.00;;
43152;SDS011;28756;49.064;9.290;2024-02-23T13:03:31;2.80;;;0.55;;
43152;SDS011;28756;49.064;9.290;2024-02-23T13:06:00;4.20;;;0.85;;
43152;SDS011;28756;49.064;9.290;2024-02-23T13:08:27;1.80;;;0.60;;
43152;SDS011;28756;49.064;9.290;2024-02-23T13:10:54;2.92;;;0.80;;
43152;SDS011;28756;49.064;9.290;2024-02-23T13:13:20;2.38;;;0.63;;
43152;SDS011;28756;49.064;9.290;2024-02-23T13:15:48;3.33;;;0.90;;
43152;SDS011;28756;49.064;9.290;2024-02-23T13:18:18;1.58;;;0.70;;
43152;SDS011;28756;49.064;9.290;2024-02-23T13:20:45;3.25;;;0.73;;
43152;SDS011;28756;49.064;9.290;2024-02-23T13:23:11;2.72;;;1.02;;
43152;SDS011;28756;49.064;9.290;2024-02-23T13:25:39;1.35;;;0.50;;
43152;SDS011;28756;49.064;9.290;2024-02-23T13:28:08;2.33;;;1.00;;
43152;SDS011;28756;49.064;9.290;2024-02-23T13:30:34;2.35;;;0.70;;
43152;SDS011;28756;49.064;9.290;2024-02-23T13:33:02;4.75;;;0.80;;
43152;SDS011;28756;49.064;9.290;2024-02-23T13:35:28;2.67;;;0.98;;
43152;SDS011;28756;49.064;9.290;2024-02-23T13:37:54;3.03;;;0.90;;
43152;SDS011;28756;49.064;9.290;2024-02-23T13:40:22;2.90;;;0.90;;
43152;SDS011;28756;49.064;9.290;2024-02-23T13:42:48;2.03;;;0.70;;
43152;SDS011;28756;49.064;9.290;2024-02-23T13:45:15;3.80;;;0.70;;
43152;SDS011;28756;49.064;9.290;2024-02-23T13:47:42;4.78;;;0.80;;
43152;SDS011;28756;49.064;9.290;2024-02-23T13:50:09;2.90;;;0.77;;
43152;SDS011;28756;49.064;9.290;2024-02-23T13:52:36;3.85;;;0.90;;
43152;SDS011;28756;49.064;9.290;2024-02-23T13:55:02;4.22;;;0.98;;
43152;SDS011;28756;49.064;9.290;2024-02-23T13:57:28;1.98;;;0.68;;
43152;SDS011;28756;49.064;9.290;2024-02-23T13:59:54;2.60;;;0.70;;
43152;SDS011;28756;49.064;9.290;2024-02-23T14:02:26;2.13;;;0.70;;
43152;SDS011;28756;49.064;9.290;2024-02-23T14:04:53;2.78;;;0.80;;
43152;SDS011;28756;49.064;9.290;2024-02-23T14:07:28;3.03;;;0.98;;
43152;SDS011;28756;49.064;9.290;2024-02-23T14:09:54;3.45;;;0.77;;
43152;SDS011;28756;49.064;9.290;2024-02-23T14:12:19;2.35;;;0.60;;
43152;SDS011;28756;49.064;9.290;2024-02-23T14:14:45;1.75;;;0.68;;
43152;SDS011;28756;49.064;9.290;2024-02-23T14:17:11;3.60;;;0.80;;
43152;SDS011;28756;49.064;9.290;2024-02-23T14:19:37;3.92;;;0.73;;
43152;SDS011;28756;49.064;9.290;2024-02-23T14:22:06;4.60;;;0.90;;
43152;SDS011;28756;49.064;9.290;2024-02-23T14:24:32;3.42;;;1.00;;
43152;SDS011;28756;49.064;9.290;2024-02-23T14:26:58;2.55;;;0.70;;
43152;SDS011;28756;49.064;9.290;2024-02-23T14:29:24;2.80;;;0.93;;
43152;SDS011;28756;49.064;9.290;2024-02-23T14:31:49;3.58;;;0.90;;
43152;SDS011;28756;49.064;9.290;2024-02-23T14:34:15;3.10;;;0.90;;
43152;SDS011;28756;49.064;9.290;2024-02-23T14:36:41;5.80;;;1.23;;
43152;SDS011;28756;49.064;9.290;2024-02-23T14:39:08;3.17;;;1.08;;
43152;SDS011;28756;49.064;9.290;2024-02-23T14:41:35;3.67;;;1.13;;
43152;SDS011;28756;49.064;9.290;2024-02-23T14:44:04;3.30;;;1.05;;
43152;SDS011;28756;49.064;9.290;2024-02-23T14:46:30;1.98;;;0.88;;
43152;SDS011;28756;49.064;9.290;2024-02-23T14:48:56;3.58;;;1.00;;
43152;SDS011;28756;49.064;9.290;2024-02-23T14:51:21;1.92;;;0.70;;